UMMS Airport Information

Runway Information
Runway 13 Length 11946 ft width 197 ft
Elevation 640 ft Threshold 0 ft Heading 139
Runway 31 Length 11946 ft Width 197 ft
Elevation 670 ft Threshold 0 ft Heading 319
Airport Frequencies
Type APP Name MINSK APP Frequency 125.9 MHZ
Type ATIS Name ATIS Frequency 128.85 MHZ
Type GND Name GND Frequency 121.7 MHZ
Type PMSV Name MINSK VOLM Frequency 126.675 MHZ
Type RDR Name MINSK RADA Frequency 125.25 MHZ
Type TWR Name TWR Frequency 118.3 MHZ
Airport Navaids
Type NDB Name Minsk-2 Frequency 635 KHZ
Type VOR-DME Name Minsk-2 Frequency 113600 KHZ
Type NDB Name Minsk-2 Frequency 635 KHZ
Airport Weather Information & NOTAM
ADDS - METARS form results

(2102 UTC 17 November 2018)
Data provider http://aviationweather.gov/metar/data/
 
METAR text: UMMS 172049Z 30002MPS 9000 SCT008 BKN110 M04/M05 Q1033 R31/D NOSIG
Conditions at: UMMS (MINSK , BY) observed 2049 UTC 17 November 2018
Temperature: -4.0°C (25°F)
Dewpoint: -5.0°C (23°F) [RH = 93%]
Pressure (altimeter): 30.50 inches Hg (1033.0 mb)
Winds: from the WNW (300 degrees) at 5 MPH (4 knots; 2.1 m/s)
Visibility: 6 miles ( 9 km)
Ceiling: 11000 feet AGL
Clouds: scattered clouds at 800 feet AGL
broken clouds at 11000 feet AGL
Weather: no significant weather observed at this time

METAR text: UMMS 172045Z 29002MPS 9000 SCT010 BKN120 M04/M05 Q1033 R31/D NOSIG
Conditions at: UMMS (MINSK , BY) observed 2045 UTC 17 November 2018
Temperature: -4.0°C (25°F)
Dewpoint: -5.0°C (23°F) [RH = 93%]
Pressure (altimeter): 30.50 inches Hg (1033.0 mb)
Winds: from the WNW (290 degrees) at 5 MPH (4 knots; 2.1 m/s)
Visibility: 6 miles ( 9 km)
Ceiling: 12000 feet AGL
Clouds: scattered clouds at 1000 feet AGL
broken clouds at 12000 feet AGL
Weather: no significant weather observed at this time

METAR text: UMMS 172030Z 28002MPS 7000 NSC M04/M05 Q1033 R31/D NOSIG
Conditions at: UMMS (MINSK , BY) observed 2030 UTC 17 November 2018
Temperature: -4.0°C (25°F)
Dewpoint: -5.0°C (23°F) [RH = 93%]
Pressure (altimeter): 30.50 inches Hg (1033.0 mb)
Winds: from the W (280 degrees) at 5 MPH (4 knots; 2.1 m/s)
Visibility: 4 miles ( 7 km)
Ceiling: at least 12,000 feet AGL
Clouds: sky clear below 12,000 feet AGL
Weather: no significant weather observed at this time

Forecast for: UMMS (MINSK , BY)
Text: TAF UMMS 171713Z 1718/1818 28005MPS 4000 BR SCT006
Forecast period: 1800 to 2200 UTC 17 November 2018
Forecast type: FROM: standard forecast or significant change
Winds: from the W (280 degrees) at 12 MPH (10 knots; 5.1 m/s)
Visibility: 2.49 miles (4.01 km)
Ceiling: at least 12,000 feet AGL
Clouds: scattered clouds at 600 feet AGL
Weather: BR  (mist)
Text: TEMPO 1718/1722 0400 -SNRA FZFG BKN003
Forecast period: 1800 to 2200 UTC 17 November 2018
Forecast type: TEMPORARY: The following changes expected for less than half the time period
Visibility: 0.25 miles (0.40 km)
Ceiling: 300 feet AGL
Clouds: broken clouds at 300 feet AGL
Weather: -SN -RA FZFG  (light snow, light rain, freezing fog)
Text: BECMG 1722/1723 34006G11MPS 3000 BCFG BR BKN004
Forecast period: 2200 UTC 17 November 2018 to 1800 UTC 18 November 2018
Forecast type: BECOMING: Conditions expected to become as follows by 2300 UTC 17 November 2018
Winds: from the NNW (340 degrees) at 14 MPH (12 knots; 6.2 m/s)
gusting to 24 MPH (21 knots; 10.8 m/s)
Visibility: 1.86 miles (2.99 km)
Ceiling: 400 feet AGL
Clouds: broken clouds at 400 feet AGL
Weather: BCFG BR  (patches of fog, mist)
Text: TEMPO 1723/1818 1200 SHRASN BKN003 SCT010CB
Forecast period: 2300 UTC 17 November 2018 to 1800 UTC 18 November 2018
Forecast type: TEMPORARY: The following changes expected for less than half the time period
Visibility: 0.75 miles (1.21 km)
Ceiling: 300 feet AGL
Clouds: broken clouds at 300 feet AGL
scattered clouds at 1000 feet AGL
Weather: SHRA SHSN  (rain showers, snow showers)
Text: PROB40
Forecast period: 2300 UTC 17 November 2018 to 0400 UTC 18 November 2018
Forecast type: TEMPORARY: The following changes expected for less than half the time period
Visibility: missing
Ceiling: unknown
Clouds: missing
Weather: -FZDZ  (light freezing drizzle)